(°C)
15°
14°
14°
14°
15°
15°
16°
(°C)
15°
15°
15°
15°
15°
16°
16°
ЮЮЗ
ЮЮЗ
Ю
Ю
Ю
Ю
Ю
(km/h)
3-9
3-8
3-8
3-8
4-8
4-8
4-8
(mm)
0
0
0
0
0
0
0
(%)
0
0
0
0
0
0
0

Издигане на слънцето

/ -36.6°
sun-icon
UV 9
05:46
19:44
Намаляваща полу-луна (226°)
00:00
09:01

METAR за Сан Диего (KSAN)

Час Условия Температура/
Точка на оросяване
Вятър Видимост Времето Облаци Налягане Промяна Сурови
MVFR 15°C / 12.2°C 190º 5kt >10km - Overcast 1200ft 1015 - KSAN 190751Z 19005KT 10SM OVC012 15/12 A2998 RMK AO2 SLP150 T01500122 401830150 $
MVFR 15°C / 11.7°C 190º 5kt >10km - Broken Clouds 1300ft 1015 - KSAN 190651Z 19005KT 10SM BKN013 15/12 A2999 RMK AO2 SLP154 T01500117 $
MVFR 15°C / 11.7°C 180º 6kt >10km - Overcast 1300ft 1015 - KSAN 190551Z 18006KT 10SM OVC013 15/12 A2999 RMK AO2 SLP156 T01500117 10172 20150 50003 $
MVFR 16.7°C / 11.7°C 160º 5kt >10km - Overcast 1400ft 1015 - KSAN 190451Z 16005KT 10SM OVC014 17/12 A3000 RMK AO2 SLP159 T01670117
MVFR 15.6°C / 11.7°C variable 5kt >10km - Overcast 1400ft - KSAN 190419Z VRB05KT 10SM OVC014 16/12 A3000 RMK AO2 T01560117
MVFR 15.6°C / 11.7°C 180º 4kt >10km - Overcast 1500ft - KSAN 190403Z 18004KT 10SM OVC015 16/12 A3000 RMK AO2 T01560117
MVFR 15.6°C / 11.7°C 180º 7kt >10km - Broken Clouds 1400ft 1015 - KSAN 190351Z 18007KT 10SM BKN014 16/12 A3000 RMK AO2 SLP157 T01560117
MVFR 15.6°C / 11.7°C 190º 5kt >10km - Overcast 1400ft - KSAN 190339Z 19005KT 10SM OVC014 16/12 A3000 RMK AO2 T01560117
MVFR 15.6°C / 11.7°C 220º 6kt >10km - Overcast 1500ft 1015 - KSAN 190251Z 22006KT 10SM OVC015 16/12 A2999 RMK AO2 SLP154 T01560117 53002
MVFR 16.1°C / 11.7°C 230º 7kt >10km - Broken Clouds 1500ft 1015 - KSAN 190151Z 23007KT 10SM BKN015 16/12 A2998 RMK AO2 SLP151 T01610117
MVFR 17.2°C / 11.7°C 220º 8kt >10km - Broken Clouds 1600ft 1014 - KSAN 190051Z 22008KT 10SM BKN016 17/12 A2997 RMK AO2 SLP149 T01720117
MVFR 16.7°C / 11.7°C 200º 8kt >10km - Broken Clouds 2200ft 1015 - KSAN 182351Z 20008KT 10SM BKN022 17/12 A2998 RMK AO2 SLP152 BKN V SCT T01670117 10183 20167 58009
MVFR 17.2°C / 11.7°C 220º 8kt Gust 19kt >10km - Broken Clouds 2200ft 1015 - KSAN 182251Z 22008G19KT 10SM BKN022 17/12 A2999 RMK AO2 SLP155 BKN V SCT T01720117
MVFR 17.8°C / 11.7°C 210º 9kt >10km - Broken Clouds 2200ft 1015 - KSAN 182151Z 21009KT 10SM BKN022 18/12 A3000 RMK AO2 SLP159 T01780117
MVFR 17.8°C / 11.7°C 240º 8kt Gust 19kt >10km - Broken Clouds 2000ft 1016 - KSAN 182051Z 24008G19KT 10SM BKN020 18/12 A3001 RMK AO2 SLP161 T01780117 58006
MVFR 17.2°C / 11.7°C 240º 9kt Gust 17kt >10km - Broken Clouds 2000ft 1016 - KSAN 181951Z 24009G17KT 10SM BKN020 17/12 A3002 RMK AO2 SLP164 T01720117
MVFR 17.8°C / 12.2°C 230º 9kt >10km - Broken Clouds 1700ft - KSAN 181933Z 23009KT 10SM BKN017 18/12 A3002 RMK AO2 T01780122
VFR 17.8°C / 11.7°C 190º 8kt >10km - Scattered Clouds 2200ft 1016 - KSAN 181851Z 19008KT 10SM SCT022 18/12 A3003 RMK AO2 SLP167 T01780117
VFR 17.8°C / 11.7°C 210º variable 170º to 230º 8kt >10km - Scattered Clouds 2200ft - KSAN 181813Z 21008KT 170V230 10SM SCT022 18/12 A3003 RMK AO2 SCT V BKN T01780117
MVFR 17.8°C / 11.1°C 200º 6kt >10km - Broken Clouds 2200ft 1016 - KSAN 181751Z 20006KT 10SM BKN022 18/11 A3003 RMK AO2 SLP168 BKN V SCT T01780111 10178 20150 58000
MVFR 16.1°C / 11.1°C 200º 5kt >10km - Overcast 2100ft 1017 - KSAN 181651Z 20005KT 10SM OVC021 16/11 A3004 RMK AO2 SLP170 T01610111
MVFR 15.6°C / 11.7°C variable 5kt >10km - Overcast 1900ft 1016 - KSAN 181551Z VRB05KT 10SM OVC019 16/12 A3003 RMK AO2 SLP169 T01560117
MVFR 15.6°C / 11.7°C variable 5kt >10km - Overcast 1600ft 1016 - KSAN 181451Z VRB05KT 10SM OVC016 16/12 A3003 RMK AO2 SLP168 T01560117 53005
MVFR 15°C / 11.7°C variable 4kt >10km - Overcast 1600ft 1016 - KSAN 181351Z VRB04KT 10SM OVC016 15/12 A3002 RMK AO2 SLP164 T01500117

MVFR

15°C / 12.2°C

[Още]
Вятър 190º 5kt
Видимост >10km
Времето -
Облаци Overcast 1200ft
Налягане 1015
Промяна -
Сурови KSAN 190751Z 19005KT 10SM OVC012 15/12 A2998 RMK AO2 SLP150 T01500122 401830150 $

MVFR

15°C / 11.7°C

[Още]
Вятър 190º 5kt
Видимост >10km
Времето -
Облаци Broken Clouds 1300ft
Налягане 1015
Промяна -
Сурови KSAN 190651Z 19005KT 10SM BKN013 15/12 A2999 RMK AO2 SLP154 T01500117 $

MVFR

15°C / 11.7°C

[Още]
Вятър 180º 6kt
Видимост >10km
Времето -
Облаци Overcast 1300ft
Налягане 1015
Промяна -
Сурови KSAN 190551Z 18006KT 10SM OVC013 15/12 A2999 RMK AO2 SLP156 T01500117 10172 20150 50003 $

MVFR

16.7°C / 11.7°C

[Още]
Вятър 160º 5kt
Видимост >10km
Времето -
Облаци Overcast 1400ft
Налягане 1015
Промяна -
Сурови KSAN 190451Z 16005KT 10SM OVC014 17/12 A3000 RMK AO2 SLP159 T01670117

MVFR

15.6°C / 11.7°C

[Още]
Вятър variable 5kt
Видимост >10km
Времето -
Облаци Overcast 1400ft
Налягане
Промяна -
Сурови KSAN 190419Z VRB05KT 10SM OVC014 16/12 A3000 RMK AO2 T01560117

MVFR

15.6°C / 11.7°C

[Още]
Вятър 180º 4kt
Видимост >10km
Времето -
Облаци Overcast 1500ft
Налягане
Промяна -
Сурови KSAN 190403Z 18004KT 10SM OVC015 16/12 A3000 RMK AO2 T01560117

MVFR

15.6°C / 11.7°C

[Още]
Вятър 180º 7kt
Видимост >10km
Времето -
Облаци Broken Clouds 1400ft
Налягане 1015
Промяна -
Сурови KSAN 190351Z 18007KT 10SM BKN014 16/12 A3000 RMK AO2 SLP157 T01560117

MVFR

15.6°C / 11.7°C

[Още]
Вятър 190º 5kt
Видимост >10km
Времето -
Облаци Overcast 1400ft
Налягане
Промяна -
Сурови KSAN 190339Z 19005KT 10SM OVC014 16/12 A3000 RMK AO2 T01560117

MVFR

15.6°C / 11.7°C

[Още]
Вятър 220º 6kt
Видимост >10km
Времето -
Облаци Overcast 1500ft
Налягане 1015
Промяна -
Сурови KSAN 190251Z 22006KT 10SM OVC015 16/12 A2999 RMK AO2 SLP154 T01560117 53002

MVFR

16.1°C / 11.7°C

[Още]
Вятър 230º 7kt
Видимост >10km
Времето -
Облаци Broken Clouds 1500ft
Налягане 1015
Промяна -
Сурови KSAN 190151Z 23007KT 10SM BKN015 16/12 A2998 RMK AO2 SLP151 T01610117

MVFR

17.2°C / 11.7°C

[Още]
Вятър 220º 8kt
Видимост >10km
Времето -
Облаци Broken Clouds 1600ft
Налягане 1014
Промяна -
Сурови KSAN 190051Z 22008KT 10SM BKN016 17/12 A2997 RMK AO2 SLP149 T01720117

MVFR

16.7°C / 11.7°C

[Още]
Вятър 200º 8kt
Видимост >10km
Времето -
Облаци Broken Clouds 2200ft
Налягане 1015
Промяна -
Сурови KSAN 182351Z 20008KT 10SM BKN022 17/12 A2998 RMK AO2 SLP152 BKN V SCT T01670117 10183 20167 58009

MVFR

17.2°C / 11.7°C

[Още]
Вятър 220º 8kt Gust 19kt
Видимост >10km
Времето -
Облаци Broken Clouds 2200ft
Налягане 1015
Промяна -
Сурови KSAN 182251Z 22008G19KT 10SM BKN022 17/12 A2999 RMK AO2 SLP155 BKN V SCT T01720117

MVFR

17.8°C / 11.7°C

[Още]
Вятър 210º 9kt
Видимост >10km
Времето -
Облаци Broken Clouds 2200ft
Налягане 1015
Промяна -
Сурови KSAN 182151Z 21009KT 10SM BKN022 18/12 A3000 RMK AO2 SLP159 T01780117

MVFR

17.8°C / 11.7°C

[Още]
Вятър 240º 8kt Gust 19kt
Видимост >10km
Времето -
Облаци Broken Clouds 2000ft
Налягане 1016
Промяна -
Сурови KSAN 182051Z 24008G19KT 10SM BKN020 18/12 A3001 RMK AO2 SLP161 T01780117 58006

MVFR

17.2°C / 11.7°C

[Още]
Вятър 240º 9kt Gust 17kt
Видимост >10km
Времето -
Облаци Broken Clouds 2000ft
Налягане 1016
Промяна -
Сурови KSAN 181951Z 24009G17KT 10SM BKN020 17/12 A3002 RMK AO2 SLP164 T01720117

MVFR

17.8°C / 12.2°C

[Още]
Вятър 230º 9kt
Видимост >10km
Времето -
Облаци Broken Clouds 1700ft
Налягане
Промяна -
Сурови KSAN 181933Z 23009KT 10SM BKN017 18/12 A3002 RMK AO2 T01780122

VFR

17.8°C / 11.7°C

[Още]
Вятър 190º 8kt
Видимост >10km
Времето -
Облаци Scattered Clouds 2200ft
Налягане 1016
Промяна -
Сурови KSAN 181851Z 19008KT 10SM SCT022 18/12 A3003 RMK AO2 SLP167 T01780117

VFR

17.8°C / 11.7°C

[Още]
Вятър 210º variable 170º to 230º 8kt
Видимост >10km
Времето -
Облаци Scattered Clouds 2200ft
Налягане
Промяна -
Сурови KSAN 181813Z 21008KT 170V230 10SM SCT022 18/12 A3003 RMK AO2 SCT V BKN T01780117

MVFR

17.8°C / 11.1°C

[Още]
Вятър 200º 6kt
Видимост >10km
Времето -
Облаци Broken Clouds 2200ft
Налягане 1016
Промяна -
Сурови KSAN 181751Z 20006KT 10SM BKN022 18/11 A3003 RMK AO2 SLP168 BKN V SCT T01780111 10178 20150 58000

MVFR

16.1°C / 11.1°C

[Още]
Вятър 200º 5kt
Видимост >10km
Времето -
Облаци Overcast 2100ft
Налягане 1017
Промяна -
Сурови KSAN 181651Z 20005KT 10SM OVC021 16/11 A3004 RMK AO2 SLP170 T01610111

MVFR

15.6°C / 11.7°C

[Още]
Вятър variable 5kt
Видимост >10km
Времето -
Облаци Overcast 1900ft
Налягане 1016
Промяна -
Сурови KSAN 181551Z VRB05KT 10SM OVC019 16/12 A3003 RMK AO2 SLP169 T01560117

MVFR

15.6°C / 11.7°C

[Още]
Вятър variable 5kt
Видимост >10km
Времето -
Облаци Overcast 1600ft
Налягане 1016
Промяна -
Сурови KSAN 181451Z VRB05KT 10SM OVC016 16/12 A3003 RMK AO2 SLP168 T01560117 53005

MVFR

15°C / 11.7°C

[Още]
Вятър variable 4kt
Видимост >10km
Времето -
Облаци Overcast 1600ft
Налягане 1016
Промяна -
Сурови KSAN 181351Z VRB04KT 10SM OVC016 15/12 A3002 RMK AO2 SLP164 T01500117

TAF за Сан Диего (KSAN)

From till


From till Wind 190º 5kt. Visibility 10km or more. Overcast 1200ft.
From till Wind 190º 9kt. Visibility 10km or more. Broken Clouds 1500ft.
Temporarly from till Scattered Clouds 1500ft.
From till Wind 190º 5kt. Visibility 10km or more. Broken Clouds 2000ft.
From till Wind 190º 8kt. Visibility 10km or more. Broken Clouds 2800ft.

Сурови: KSAN 190520Z 1906/2012 19005KT P6SM OVC012 FM191800 19009KT P6SM BKN015 TEMPO 1920/1924 SCT015 FM200300 19005KT P6SM BKN020 FM200800 19008KT P6SM BKN028

Радар и валежи в момента за Сан Диего

Ситен дъжд
Лек
Умерен
Тежък
Много тежък
Аве

Маркерът за локация обозначава Сан Диего. Анимацията показва Радара за валежи за последния час, както и прогноза за 1h. Дъждът или лекият сняг може да са невидими за радара. Интензивността на валежите е обозначена с цветни кодове, вариращи от светлосиньо до оранжево.

Актуални сателитни изображения за Сан Диего, САЩ

Маркерът за локация е поставен върху Сан Диего. [Още]

Сателитното изображение в реално време съчетава видимата светлина през деня с инфрачервеното лъчение през нощта. През нощта изображението не е тъмно, тъй като инфрачервеното лъчение може да открива температурни разлики. За съжаление ниските облаци и мъглата са трудни за разграничаване от температурите на земята и затова могат да бъдат почти невидими през нощта. Сателитните изображения на Meteosat за Европа се актуализират в реално време на всеки 5 минути. Изображенията GOES-16/GOES-17 (Северна и Южна Америка) и Химавари (Азия) се актуализират на всеки 10 минути.

Върнете се в началото